»·PEaware :: ASU4 KSAN-KSNA

ASU4 :: KSAN-KSNA

FLIGHT INFORMATION

Flight Status: Arrived
Operator:
Arizona State University
More flights by this operator :: More flights under this callsign
Pilot: Arizona State University (3812)
Aircraft: BEECH AIRCRAFT SUPER KING AIR COMMUTER
(BE20)
More flights by this aircraft type
Origin: KSAN San Diego Intl-Lindbergh
United States
Destination: KSNA John Wayne-Orange Co
United States
More flights between these airports :: More routes between these airports
Route: +KSAN PEBLE6 SLI KSNA
File this flight plan on PilotEdge
Remarks: Callsign SunDevil 4. * Request ILS RWY20R at KSNA* Wx is 300 / 2
Altitude:
(Current/Filed)
8,000ft
Speed:
(Current/Filed)
240kts
Departed: 27-Nov-19 12:51 PM
Arrived: 27-Nov-19 01:26 PM
Distance/Time
Traveled:
66nm/0:34
Distance/Time
To Go:
Arrived

Flight Plot

Page will automatically refresh every two minutes.


Map Options




Map Legend


Flown Route
Filed Route
Departure Airport
Arrival Airport
Navaid (VOR, NDB)
Fix

Horizontal Profiles

Position Reports

Time Latitude Longitude Heading Altitude Ground
Speed
27-Nov-19 12:24 32.730472 -117.190338 285 19ft 10kts
27-Nov-19 12:25 32.730472 -117.190338 285 19ft 10kts
27-Nov-19 12:26 32.730472 -117.190338 285 19ft 11kts
27-Nov-19 12:27 32.730472 -117.190338 285 19ft 11kts
27-Nov-19 12:28 32.730472 -117.190338 285 19ft 11kts
27-Nov-19 12:29 32.730472 -117.190338 285 19ft 10kts
27-Nov-19 12:30 32.730472 -117.190338 285 19ft 11kts
27-Nov-19 12:31 32.730472 -117.190338 285 19ft 11kts
27-Nov-19 12:32 32.730472 -117.190338 285 19ft 11kts
27-Nov-19 12:33 32.730472 -117.190338 285 19ft 10kts
27-Nov-19 12:34 32.730472 -117.190338 285 19ft 11kts
27-Nov-19 12:35 32.730472 -117.190338 285 19ft 11kts
27-Nov-19 12:36 32.730472 -117.190338 285 19ft 11kts
27-Nov-19 12:37 32.730472 -117.190338 285 19ft 10kts
27-Nov-19 12:38 32.730472 -117.190338 285 19ft 10kts
27-Nov-19 12:39 32.730472 -117.190338 285 19ft 11kts
27-Nov-19 12:40 32.730472 -117.190338 285 19ft 11kts
27-Nov-19 12:41 32.730472 -117.190338 285 19ft 10kts
27-Nov-19 12:42 32.730472 -117.190338 285 19ft 11kts
27-Nov-19 12:43 32.730472 -117.190338 285 19ft 11kts
27-Nov-19 12:44 32.730472 -117.190338 285 19ft 11kts
27-Nov-19 12:45 32.731807 -117.190807 12 19ft 19kts
27-Nov-19 12:46 32.731990 -117.186975 105 19ft 26kts
27-Nov-19 12:47 32.730616 -117.181174 104 19ft 19kts
27-Nov-19 12:48 32.729597 -117.176761 97 19ft 12kts
27-Nov-19 12:49 32.729814 -117.176018 44 19ft 13kts
27-Nov-19 12:50 32.733272 -117.188041 285 110ft 111kts
27-Nov-19 12:51 32.760080 -117.225914 306 2138ft 188kts
27-Nov-19 12:52 32.793064 -117.276932 306 4000ft 200kts
27-Nov-19 12:53 32.825872 -117.332018 306 5988ft 207kts
27-Nov-19 12:54 32.859871 -117.389062 305 7719ft 214kts
27-Nov-19 12:55 32.908183 -117.439956 331 8092ft 247kts
27-Nov-19 12:56 32.960525 -117.479338 311 7784ft 191kts
27-Nov-19 12:57 32.990482 -117.534282 301 7980ft 201kts
27-Nov-19 12:58 33.019646 -117.591067 304 7964ft 199kts
27-Nov-19 12:59 33.051554 -117.644674 306 7946ft 198kts
27-Nov-19 13:00 33.084206 -117.697609 307 7957ft 197kts
27-Nov-19 13:01 33.117667 -117.749415 306 7947ft 199kts
27-Nov-19 13:02 33.150770 -117.802068 307 7955ft 197kts
27-Nov-19 13:03 33.187496 -117.849300 338 7942ft 198kts
27-Nov-19 13:04 33.239516 -117.869717 345 7995ft 196kts
27-Nov-19 13:05 33.292545 -117.886574 342 7962ft 197kts
27-Nov-19 13:06 33.345152 -117.905605 345 7967ft 198kts
27-Nov-19 13:07 33.398888 -117.920739 348 7950ft 199kts
27-Nov-19 13:08 33.453584 -117.923701 22 7622ft 212kts
27-Nov-19 13:09 33.510467 -117.894721 22 6684ft 225kts
27-Nov-19 13:10 33.568975 -117.865720 28 5623ft 230kts
27-Nov-19 13:11 33.621145 -117.826409 32 5217ft 208kts
27-Nov-19 13:12 33.669461 -117.790581 32 5218ft 198kts
27-Nov-19 13:13 33.715890 -117.755103 32 5234ft 197kts
27-Nov-19 13:14 33.762325 -117.719369 33 5248ft 198kts
27-Nov-19 13:15 33.810921 -117.682880 31 5304ft 211kts
27-Nov-19 13:16 33.860262 -117.651212 8 5273ft 172kts
27-Nov-19 13:17 33.871548 -117.687080 230 4895ft 145kts
27-Nov-19 13:18 33.848898 -117.733460 242 4211ft 161kts
27-Nov-19 13:19 33.826038 -117.768535 213 3369ft 137kts
27-Nov-19 13:20 33.793379 -117.791568 209 3066ft 135kts
27-Nov-19 13:21 33.762856 -117.813723 208 1965ft 132kts
27-Nov-19 13:22 33.730885 -117.834379 207 1184ft 135kts
27-Nov-19 13:23 33.699419 -117.854343 207 480ft 125kts
27-Nov-19 13:24 33.673816 -117.870024 208 60ft 54kts
27-Nov-19 13:25 33.669786 -117.873417 302 60ft 2kts
27-Nov-19 13:26 33.669786 -117.873417 302 60ft 1kts
27-Nov-19 13:27 33.670070 -117.873914 302 60ft 9kts
27-Nov-19 13:28 33.670456 -117.874230 20 60ft 0kts

Navigation Log

Ident Type
Flight plan parsing failed, navigation log unavailable